createdAt,value
2017-12-27T00:04:18.512Z,98526.06
2017-12-27T00:09:03.468Z,98531.42
2017-12-27T00:23:03.549Z,98506.99
2017-12-27T00:27:43.790Z,98512.95
2017-12-27T00:46:38.503Z,98484.87
2017-12-27T00:49:11.984Z,98493.65
2017-12-27T00:51:47.723Z,98488.36
2017-12-27T01:00:17.153Z,98491.17
2017-12-27T01:05:40.896Z,98492.20
2017-12-27T01:08:19.443Z,98493.34
2017-12-27T01:10:56.352Z,98492.78
2017-12-27T01:35:16.220Z,98452.88
2017-12-27T01:37:50.107Z,98454.66
2017-12-27T01:40:24.179Z,98447.16
2017-12-27T01:43:02.974Z,98437.10
2017-12-27T01:45:40.985Z,98431.84
2017-12-27T01:48:14.575Z,98430.09
2017-12-27T01:50:52.546Z,98424.28
2017-12-27T01:53:26.997Z,98423.31
2017-12-27T01:56:02.090Z,98418.89
2017-12-27T01:58:43.357Z,98416.37
2017-12-27T02:01:15.022Z,98403.59
2017-12-27T02:03:46.655Z,98397.90
2017-12-27T02:06:20.645Z,98401.11
2017-12-27T02:08:52.163Z,98396.94
2017-12-27T02:11:23.481Z,98391.14
2017-12-27T02:13:54.916Z,98378.06
2017-12-27T02:16:27.553Z,98368.73
2017-12-27T02:18:59.398Z,98366.75
2017-12-27T02:21:30.571Z,98359.84
2017-12-27T02:24:02.954Z,98361.74
2017-12-27T02:26:34.210Z,98361.14
2017-12-27T02:29:10.580Z,98358.45
2017-12-27T02:31:42.419Z,98352.52
2017-12-27T02:35:27.559Z,98342.64
2017-12-27T02:38:00.877Z,98337.63
2017-12-27T02:40:35.532Z,98327.23
2017-12-27T02:43:10.863Z,98322.97
2017-12-27T02:45:43.907Z,98322.71
2017-12-27T02:51:06.566Z,98316.37
2017-12-27T02:53:40.267Z,98310.41
2017-12-27T02:56:16.051Z,98301.27
2017-12-27T02:58:47.324Z,98312.27
2017-12-27T03:01:19.401Z,98295.98
2017-12-27T03:03:53.248Z,98287.88
2017-12-27T03:06:24.549Z,98284.77
2017-12-27T03:14:02.641Z,98274.56
2017-12-27T03:16:37.616Z,98254.55
2017-12-27T03:19:14.469Z,98259.67
2017-12-27T03:21:50.187Z,98244.45
2017-12-27T03:24:22.958Z,98242.00
2017-12-27T03:26:55.431Z,98234.84
2017-12-27T03:29:27.910Z,98224.97
2017-12-27T03:32:01.501Z,98215.38
2017-12-27T03:34:33.216Z,98208.63
2017-12-27T03:37:05.927Z,98212.70
2017-12-27T03:42:37.656Z,98194.59
2017-12-27T03:54:03.800Z,98168.91
2017-12-27T03:56:38.303Z,98163.76
2017-12-27T04:02:06.298Z,98138.09
2017-12-27T04:04:39.059Z,98136.63
2017-12-27T04:07:10.365Z,98128.11
2017-12-27T04:09:41.753Z,98121.89
2017-12-27T04:12:14.568Z,98112.03
2017-12-27T04:14:49.250Z,98107.16
2017-12-27T04:17:22.684Z,98101.09
2017-12-27T04:20:12.727Z,98092.88
2017-12-27T04:22:44.193Z,98085.14
2017-12-27T04:25:15.737Z,98087.31
2017-12-27T04:27:47.207Z,98087.72
2017-12-27T04:30:26.114Z,98085.71
2017-12-27T04:32:57.534Z,98081.37
2017-12-27T04:35:28.954Z,98080.69
2017-12-27T04:38:00.176Z,98073.93
2017-12-27T04:40:31.370Z,98056.94
2017-12-27T04:43:07.572Z,98064.47
2017-12-27T04:45:38.721Z,98063.28
2017-12-27T04:48:12.374Z,98048.36
2017-12-27T04:50:55.638Z,98042.20
2017-12-27T04:53:27.650Z,98032.59
2017-12-27T04:55:59.351Z,98034.23
2017-12-27T05:07:41.939Z,98013.16
2017-12-27T05:10:16.078Z,98010.05
2017-12-27T05:12:49.920Z,98006.41
2017-12-27T05:15:24.656Z,98009.80
2017-12-27T05:21:06.797Z,97992.25
2017-12-27T05:23:42.333Z,97984.93
2017-12-27T05:45:31.357Z,97959.27
2017-12-27T06:07:08.333Z,97923.91
2017-12-27T06:57:13.758Z,97833.81
2017-12-27T07:02:57.109Z,97818.83
2017-12-27T07:05:29.099Z,97818.55
2017-12-27T07:08:00.749Z,97820.17
2017-12-27T07:10:35.311Z,97817.09
2017-12-27T07:38:26.605Z,97783.08
2017-12-27T07:44:10.822Z,97774.70
2017-12-27T07:56:33.214Z,97771.58
2017-12-27T08:05:25.033Z,97752.02
2017-12-27T08:14:26.518Z,97725.95
2017-12-27T08:17:20.837Z,97721.25
2017-12-27T08:19:58.508Z,97716.34
2017-12-27T08:22:44.244Z,97719.22
2017-12-27T08:34:50.091Z,97694.48
2017-12-27T08:37:33.327Z,97688.95
2017-12-27T08:40:11.841Z,97682.65
2017-12-27T08:46:00.319Z,97689.77
2017-12-27T08:48:40.740Z,97680.86
2017-12-27T08:54:18.985Z,97670.75
2017-12-27T08:56:56.688Z,97663.30
2017-12-27T08:59:32.301Z,97667.34
2017-12-27T09:05:14.413Z,97652.86
2017-12-27T09:07:58.422Z,97653.51
2017-12-27T09:10:52.649Z,97646.94
2017-12-27T09:13:40.951Z,97648.37
2017-12-27T09:34:53.309Z,97599.66
2017-12-27T09:37:29.527Z,97600.87
2017-12-27T09:40:07.359Z,97602.23
